sensor_id;sensor_type;location;lat;lon;timestamp;P1;durP1;ratioP1;P2;durP2;ratioP2
57718;SDS011;43561;50.090;18.522;2024-01-06T00:03:44;90.30;;;32.75;;
57718;SDS011;43561;50.090;18.522;2024-01-06T00:34:53;154.57;;;36.63;;
57718;SDS011;43561;50.090;18.522;2024-01-06T00:45:39;83.38;;;32.88;;
57718;SDS011;43561;50.090;18.522;2024-01-06T00:55:46;64.60;;;32.50;;
57718;SDS011;43561;50.090;18.522;2024-01-06T01:05:53;76.03;;;31.90;;
57718;SDS011;43561;50.090;18.522;2024-01-06T01:16:22;88.97;;;35.10;;
57718;SDS011;43561;50.090;18.522;2024-01-06T01:26:39;91.38;;;34.22;;
57718;SDS011;43561;50.090;18.522;2024-01-06T01:36:42;80.78;;;41.03;;
57718;SDS011;43561;50.090;18.522;2024-01-06T01:46:51;68.00;;;37.70;;
57718;SDS011;43561;50.090;18.522;2024-01-06T01:57:05;76.40;;;37.20;;
57718;SDS011;43561;50.090;18.522;2024-01-06T02:07:07;73.15;;;33.38;;
57718;SDS011;43561;50.090;18.522;2024-01-06T02:17:30;64.95;;;32.35;;
57718;SDS011;43561;50.090;18.522;2024-01-06T02:27:33;81.03;;;38.87;;
57718;SDS011;43561;50.090;18.522;2024-01-06T03:22:28;67.50;;;33.13;;
57718;SDS011;43561;50.090;18.522;2024-01-06T03:54:20;99.07;;;44.63;;
57718;SDS011;43561;50.090;18.522;2024-01-06T04:04:26;84.05;;;41.97;;
57718;SDS011;43561;50.090;18.522;2024-01-06T04:14:50;78.70;;;40.22;;
57718;SDS011;43561;50.090;18.522;2024-01-06T04:25:11;70.95;;;41.83;;
57718;SDS011;43561;50.090;18.522;2024-01-06T04:45:51;88.67;;;39.90;;
57718;SDS011;43561;50.090;18.522;2024-01-06T04:55:54;151.02;;;56.40;;
57718;SDS011;43561;50.090;18.522;2024-01-06T05:16:52;109.60;;;57.50;;
57718;SDS011;43561;50.090;18.522;2024-01-06T05:27:25;112.93;;;54.80;;
57718;SDS011;43561;50.090;18.522;2024-01-06T05:37:27;132.57;;;57.75;;
57718;SDS011;43561;50.090;18.522;2024-01-06T05:47:33;130.38;;;58.58;;
57718;SDS011;43561;50.090;18.522;2024-01-06T05:57:37;89.63;;;45.88;;
57718;SDS011;43561;50.090;18.522;2024-01-06T06:07:40;107.78;;;51.10;;
57718;SDS011;43561;50.090;18.522;2024-01-06T06:17:42;115.38;;;56.33;;
57718;SDS011;43561;50.090;18.522;2024-01-06T06:27:44;113.38;;;54.67;;
57718;SDS011;43561;50.090;18.522;2024-01-06T06:37:46;151.77;;;66.72;;
57718;SDS011;43561;50.090;18.522;2024-01-06T06:47:49;143.50;;;63.80;;
57718;SDS011;43561;50.090;18.522;2024-01-06T06:57:51;133.15;;;60.90;;
57718;SDS011;43561;50.090;18.522;2024-01-06T07:07:56;104.13;;;55.38;;
57718;SDS011;43561;50.090;18.522;2024-01-06T07:18:02;134.27;;;63.17;;
57718;SDS011;43561;50.090;18.522;2024-01-06T07:28:08;149.45;;;71.07;;
57718;SDS011;43561;50.090;18.522;2024-01-06T07:38:10;159.95;;;78.22;;
57718;SDS011;43561;50.090;18.522;2024-01-06T07:48:12;142.35;;;64.20;;
57718;SDS011;43561;50.090;18.522;2024-01-06T07:58:15;137.88;;;65.45;;
57718;SDS011;43561;50.090;18.522;2024-01-06T08:08:17;140.10;;;70.22;;
57718;SDS011;43561;50.090;18.522;2024-01-06T08:18:18;140.18;;;75.50;;
57718;SDS011;43561;50.090;18.522;2024-01-06T08:28:21;145.70;;;71.78;;
57718;SDS011;43561;50.090;18.522;2024-01-06T08:38:22;132.48;;;61.22;;
57718;SDS011;43561;50.090;18.522;2024-01-06T08:48:24;141.93;;;73.75;;
57718;SDS011;43561;50.090;18.522;2024-01-06T08:58:26;157.07;;;72.00;;
57718;SDS011;43561;50.090;18.522;2024-01-06T09:08:28;198.98;;;89.32;;
57718;SDS011;43561;50.090;18.522;2024-01-06T09:18:30;249.23;;;127.78;;
57718;SDS011;43561;50.090;18.522;2024-01-06T09:28:33;144.38;;;71.82;;
57718;SDS011;43561;50.090;18.522;2024-01-06T09:38:35;166.20;;;74.13;;
57718;SDS011;43561;50.090;18.522;2024-01-06T09:48:40;178.18;;;78.65;;
57718;SDS011;43561;50.090;18.522;2024-01-06T09:58:43;159.00;;;77.43;;
57718;SDS011;43561;50.090;18.522;2024-01-06T10:08:49;127.97;;;58.13;;
57718;SDS011;43561;50.090;18.522;2024-01-06T10:18:53;90.78;;;50.38;;
57718;SDS011;43561;50.090;18.522;2024-01-06T10:28:55;113.20;;;56.88;;
57718;SDS011;43561;50.090;18.522;2024-01-06T10:38:57;134.68;;;65.93;;
57718;SDS011;43561;50.090;18.522;2024-01-06T10:48:59;122.05;;;63.25;;
57718;SDS011;43561;50.090;18.522;2024-01-06T10:59:03;114.30;;;58.25;;
57718;SDS011;43561;50.090;18.522;2024-01-06T11:29:37;142.95;;;64.82;;
57718;SDS011;43561;50.090;18.522;2024-01-06T11:39:44;101.20;;;57.42;;
57718;SDS011;43561;50.090;18.522;2024-01-06T11:49:46;147.55;;;69.05;;
57718;SDS011;43561;50.090;18.522;2024-01-06T11:59:49;147.23;;;67.72;;
57718;SDS011;43561;50.090;18.522;2024-01-06T12:10:00;148.05;;;63.45;;
57718;SDS011;43561;50.090;18.522;2024-01-06T12:20:03;152.80;;;62.55;;
57718;SDS011;43561;50.090;18.522;2024-01-06T12:30:10;161.57;;;70.45;;
57718;SDS011;43561;50.090;18.522;2024-01-06T12:40:15;148.77;;;72.40;;
57718;SDS011;43561;50.090;18.522;2024-01-06T12:50:18;179.40;;;84.28;;
57718;SDS011;43561;50.090;18.522;2024-01-06T13:00:20;205.13;;;90.50;;
57718;SDS011;43561;50.090;18.522;2024-01-06T13:10:22;218.70;;;103.47;;
57718;SDS011;43561;50.090;18.522;2024-01-06T13:20:24;179.65;;;80.28;;
57718;SDS011;43561;50.090;18.522;2024-01-06T13:30:26;175.30;;;80.30;;
57718;SDS011;43561;50.090;18.522;2024-01-06T13:40:28;161.13;;;77.13;;
57718;SDS011;43561;50.090;18.522;2024-01-06T13:50:30;183.07;;;90.25;;
57718;SDS011;43561;50.090;18.522;2024-01-06T14:00:32;142.95;;;72.70;;
57718;SDS011;43561;50.090;18.522;2024-01-06T14:10:34;126.40;;;63.95;;
57718;SDS011;43561;50.090;18.522;2024-01-06T14:20:36;121.35;;;59.20;;
57718;SDS011;43561;50.090;18.522;2024-01-06T14:30:38;119.53;;;61.72;;
57718;SDS011;43561;50.090;18.522;2024-01-06T14:40:40;117.43;;;64.70;;
57718;SDS011;43561;50.090;18.522;2024-01-06T14:50:43;79.40;;;46.17;;
57718;SDS011;43561;50.090;18.522;2024-01-06T15:00:45;83.93;;;48.60;;
57718;SDS011;43561;50.090;18.522;2024-01-06T15:10:47;70.07;;;41.15;;
57718;SDS011;43561;50.090;18.522;2024-01-06T15:20:49;72.25;;;41.05;;
57718;SDS011;43561;50.090;18.522;2024-01-06T15:30:51;61.03;;;33.10;;
57718;SDS011;43561;50.090;18.522;2024-01-06T15:40:53;78.72;;;35.85;;
57718;SDS011;43561;50.090;18.522;2024-01-06T15:50:55;108.38;;;49.55;;
57718;SDS011;43561;50.090;18.522;2024-01-06T16:00:57;63.90;;;38.78;;
57718;SDS011;43561;50.090;18.522;2024-01-06T16:10:59;89.43;;;46.42;;
57718;SDS011;43561;50.090;18.522;2024-01-06T16:21:01;89.97;;;49.72;;
57718;SDS011;43561;50.090;18.522;2024-01-06T16:31:03;98.85;;;51.45;;
57718;SDS011;43561;50.090;18.522;2024-01-06T16:41:06;92.70;;;47.38;;
57718;SDS011;43561;50.090;18.522;2024-01-06T16:51:08;79.03;;;38.85;;
57718;SDS011;43561;50.090;18.522;2024-01-06T17:01:09;68.13;;;43.50;;
57718;SDS011;43561;50.090;18.522;2024-01-06T17:11:11;72.85;;;35.28;;
57718;SDS011;43561;50.090;18.522;2024-01-06T17:21:13;108.93;;;49.60;;
57718;SDS011;43561;50.090;18.522;2024-01-06T17:31:16;86.05;;;43.97;;
57718;SDS011;43561;50.090;18.522;2024-01-06T17:41:18;65.47;;;36.67;;
57718;SDS011;43561;50.090;18.522;2024-01-06T17:51:20;83.55;;;39.35;;
57718;SDS011;43561;50.090;18.522;2024-01-06T18:01:22;73.95;;;37.17;;
57718;SDS011;43561;50.090;18.522;2024-01-06T18:11:24;73.65;;;36.25;;
57718;SDS011;43561;50.090;18.522;2024-01-06T18:21:26;68.13;;;36.88;;
57718;SDS011;43561;50.090;18.522;2024-01-06T18:31:28;63.33;;;38.47;;
57718;SDS011;43561;50.090;18.522;2024-01-06T18:41:30;52.75;;;32.05;;
57718;SDS011;43561;50.090;18.522;2024-01-06T18:51:32;51.30;;;28.30;;
57718;SDS011;43561;50.090;18.522;2024-01-06T19:01:34;43.92;;;21.25;;
57718;SDS011;43561;50.090;18.522;2024-01-06T19:11:36;76.05;;;35.53;;
57718;SDS011;43561;50.090;18.522;2024-01-06T19:21:38;56.22;;;31.73;;
57718;SDS011;43561;50.090;18.522;2024-01-06T19:31:43;69.22;;;37.42;;
57718;SDS011;43561;50.090;18.522;2024-01-06T19:41:45;61.67;;;35.03;;
57718;SDS011;43561;50.090;18.522;2024-01-06T19:51:47;68.43;;;27.90;;
57718;SDS011;43561;50.090;18.522;2024-01-06T20:01:49;52.17;;;28.67;;
57718;SDS011;43561;50.090;18.522;2024-01-06T20:11:52;63.75;;;32.67;;
57718;SDS011;43561;50.090;18.522;2024-01-06T20:21:54;61.80;;;32.08;;
57718;SDS011;43561;50.090;18.522;2024-01-06T20:31:56;46.63;;;32.25;;
57718;SDS011;43561;50.090;18.522;2024-01-06T20:41:58;52.05;;;28.88;;
57718;SDS011;43561;50.090;18.522;2024-01-06T20:52:00;49.03;;;29.55;;
57718;SDS011;43561;50.090;18.522;2024-01-06T21:02:02;62.55;;;32.47;;
57718;SDS011;43561;50.090;18.522;2024-01-06T21:12:05;75.78;;;36.85;;
57718;SDS011;43561;50.090;18.522;2024-01-06T21:22:07;66.82;;;31.65;;
57718;SDS011;43561;50.090;18.522;2024-01-06T21:32:09;96.20;;;41.17;;
57718;SDS011;43561;50.090;18.522;2024-01-06T21:42:11;46.05;;;24.10;;
57718;SDS011;43561;50.090;18.522;2024-01-06T21:52:13;33.53;;;21.10;;
57718;SDS011;43561;50.090;18.522;2024-01-06T22:02:20;51.20;;;25.73;;
57718;SDS011;43561;50.090;18.522;2024-01-06T22:12:22;47.75;;;24.98;;
57718;SDS011;43561;50.090;18.522;2024-01-06T22:22:24;42.60;;;24.23;;
57718;SDS011;43561;50.090;18.522;2024-01-06T22:32:27;47.55;;;26.52;;
57718;SDS011;43561;50.090;18.522;2024-01-06T22:42:28;60.17;;;30.50;;
57718;SDS011;43561;50.090;18.522;2024-01-06T22:52:31;49.00;;;33.13;;
57718;SDS011;43561;50.090;18.522;2024-01-06T23:02:33;67.57;;;29.23;;
57718;SDS011;43561;50.090;18.522;2024-01-06T23:12:35;62.38;;;33.72;;
57718;SDS011;43561;50.090;18.522;2024-01-06T23:22:38;41.38;;;25.38;;
57718;SDS011;43561;50.090;18.522;2024-01-06T23:32:40;57.63;;;26.73;;
57718;SDS011;43561;50.090;18.522;2024-01-06T23:42:43;40.97;;;21.35;;
57718;SDS011;43561;50.090;18.522;2024-01-06T23:52:45;45.35;;;29.13;;
